sensor_id;sensor_type;location;lat;lon;timestamp;P1;durP1;ratioP1;P2;durP2;ratioP2
32138;SDS011;18644;48.700;9.210;2022-10-16T17:30:46;1.73;;;1.05;;
32138;SDS011;18644;48.700;9.210;2022-10-16T17:33:13;3.13;;;1.90;;
32138;SDS011;18644;48.700;9.210;2022-10-16T17:35:41;2.22;;;1.50;;
32138;SDS011;18644;48.700;9.210;2022-10-16T17:38:10;6.35;;;1.27;;
32138;SDS011;18644;48.700;9.210;2022-10-16T17:40:40;1.15;;;1.05;;
32138;SDS011;18644;48.700;9.210;2022-10-16T17:43:07;2.75;;;1.10;;
32138;SDS011;18644;48.700;9.210;2022-10-16T17:45:35;2.08;;;1.33;;
32138;SDS011;18644;48.700;9.210;2022-10-16T17:48:04;0.80;;;0.80;;
32138;SDS011;18644;48.700;9.210;2022-10-16T17:50:31;1.40;;;1.30;;
32138;SDS011;18644;48.700;9.210;2022-10-16T17:52:58;2.47;;;1.08;;
32138;SDS011;18644;48.700;9.210;2022-10-16T17:55:25;3.47;;;1.15;;
32138;SDS011;18644;48.700;9.210;2022-10-16T17:57:52;1.10;;;1.00;;
32138;SDS011;18644;48.700;9.210;2022-10-16T18:00:19;1.10;;;1.00;;
32138;SDS011;18644;48.700;9.210;2022-10-16T18:02:47;1.88;;;1.00;;
32138;SDS011;18644;48.700;9.210;2022-10-16T18:05:16;1.40;;;1.20;;
32138;SDS011;18644;48.700;9.210;2022-10-16T18:07:43;10.88;;;1.50;;
32138;SDS011;18644;48.700;9.210;2022-10-16T18:10:10;15.18;;;1.48;;
32138;SDS011;18644;48.700;9.210;2022-10-16T18:12:37;6.43;;;1.17;;
32138;SDS011;18644;48.700;9.210;2022-10-16T18:15:04;1.48;;;0.90;;
32138;SDS011;18644;48.700;9.210;2022-10-16T18:17:33;0.80;;;0.80;;
32138;SDS011;18644;48.700;9.210;2022-10-16T18:20:01;1.27;;;1.15;;
32138;SDS011;18644;48.700;9.210;2022-10-16T18:22:32;1.20;;;1.10;;
32138;SDS011;18644;48.700;9.210;2022-10-16T18:25:00;2.78;;;0.80;;
32138;SDS011;18644;48.700;9.210;2022-10-16T18:27:29;3.10;;;1.10;;
32138;SDS011;18644;48.700;9.210;2022-10-16T18:29:55;1.92;;;1.27;;
32138;SDS011;18644;48.700;9.210;2022-10-16T18:32:24;1.42;;;1.13;;
32138;SDS011;18644;48.700;9.210;2022-10-16T18:34:51;2.30;;;1.27;;
32138;SDS011;18644;48.700;9.210;2022-10-16T18:37:18;1.30;;;1.20;;
32138;SDS011;18644;48.700;9.210;2022-10-16T18:39:46;2.78;;;1.45;;
32138;SDS011;18644;48.700;9.210;2022-10-16T18:42:14;4.32;;;3.05;;
32138;SDS011;18644;48.700;9.210;2022-10-16T18:44:42;3.35;;;2.55;;
32138;SDS011;18644;48.700;9.210;2022-10-16T18:47:09;4.63;;;2.55;;
32138;SDS011;18644;48.700;9.210;2022-10-16T18:49:36;4.22;;;2.53;;
32138;SDS011;18644;48.700;9.210;2022-10-16T18:52:03;15.07;;;3.30;;
32138;SDS011;18644;48.700;9.210;2022-10-16T18:54:30;3.22;;;2.47;;
32138;SDS011;18644;48.700;9.210;2022-10-16T18:56:59;2.33;;;1.77;;
32138;SDS011;18644;48.700;9.210;2022-10-16T18:59:26;1.60;;;1.10;;
32138;SDS011;18644;48.700;9.210;2022-10-16T19:01:53;2.55;;;1.30;;
32138;SDS011;18644;48.700;9.210;2022-10-16T19:04:20;6.90;;;1.33;;
32138;SDS011;18644;48.700;9.210;2022-10-16T19:06:48;1.83;;;1.25;;
32138;SDS011;18644;48.700;9.210;2022-10-16T19:09:18;1.23;;;1.13;;
32138;SDS011;18644;48.700;9.210;2022-10-16T19:11:47;4.35;;;1.50;;
32138;SDS011;18644;48.700;9.210;2022-10-16T19:14:16;2.97;;;1.55;;
32138;SDS011;18644;48.700;9.210;2022-10-16T19:16:45;6.45;;;1.77;;
32138;SDS011;18644;48.700;9.210;2022-10-16T19:19:13;2.67;;;1.60;;
32138;SDS011;18644;48.700;9.210;2022-10-16T19:21:42;2.40;;;1.75;;
32138;SDS011;18644;48.700;9.210;2022-10-16T19:24:11;2.25;;;1.50;;
32138;SDS011;18644;48.700;9.210;2022-10-16T19:26:39;3.25;;;2.03;;
32138;SDS011;18644;48.700;9.210;2022-10-16T19:29:06;5.03;;;1.17;;
32138;SDS011;18644;48.700;9.210;2022-10-16T19:31:35;1.40;;;1.10;;
32138;SDS011;18644;48.700;9.210;2022-10-16T19:34:03;3.65;;;1.15;;
32138;SDS011;18644;48.700;9.210;2022-10-16T19:36:31;3.33;;;1.30;;
32138;SDS011;18644;48.700;9.210;2022-10-16T19:39:01;1.40;;;1.27;;
32138;SDS011;18644;48.700;9.210;2022-10-16T19:41:31;1.73;;;1.20;;
32138;SDS011;18644;48.700;9.210;2022-10-16T19:43:59;2.65;;;1.13;;
32138;SDS011;18644;48.700;9.210;2022-10-16T19:46:27;2.50;;;1.10;;
32138;SDS011;18644;48.700;9.210;2022-10-16T19:48:56;1.73;;;1.17;;
32138;SDS011;18644;48.700;9.210;2022-10-16T19:51:24;1.00;;;1.00;;
32138;SDS011;18644;48.700;9.210;2022-10-16T19:53:53;1.63;;;1.08;;
32138;SDS011;18644;48.700;9.210;2022-10-16T19:56:22;4.20;;;1.17;;
32138;SDS011;18644;48.700;9.210;2022-10-16T19:58:52;1.15;;;1.05;;
32138;SDS011;18644;48.700;9.210;2022-10-16T20:01:21;1.90;;;1.20;;
32138;SDS011;18644;48.700;9.210;2022-10-16T20:03:50;2.47;;;1.38;;
32138;SDS011;18644;48.700;9.210;2022-10-16T20:06:19;2.08;;;1.40;;
32138;SDS011;18644;48.700;9.210;2022-10-16T20:08:47;2.60;;;1.52;;
32138;SDS011;18644;48.700;9.210;2022-10-16T20:11:20;3.05;;;1.45;;
32138;SDS011;18644;48.700;9.210;2022-10-16T20:13:49;1.40;;;1.10;;
32138;SDS011;18644;48.700;9.210;2022-10-16T20:16:17;2.10;;;1.23;;
32138;SDS011;18644;48.700;9.210;2022-10-16T20:18:44;1.65;;;1.40;;
32138;SDS011;18644;48.700;9.210;2022-10-16T20:21:12;2.63;;;1.73;;
32138;SDS011;18644;48.700;9.210;2022-10-16T20:23:44;1.60;;;1.35;;
32138;SDS011;18644;48.700;9.210;2022-10-16T20:26:13;1.70;;;1.30;;
32138;SDS011;18644;48.700;9.210;2022-10-16T20:28:41;1.55;;;1.45;;
32138;SDS011;18644;48.700;9.210;2022-10-16T20:31:10;2.50;;;1.80;;
32138;SDS011;18644;48.700;9.210;2022-10-16T20:33:42;2.53;;;1.33;;
32138;SDS011;18644;48.700;9.210;2022-10-16T20:36:09;2.25;;;1.20;;
32138;SDS011;18644;48.700;9.210;2022-10-16T20:38:37;1.90;;;1.52;;
32138;SDS011;18644;48.700;9.210;2022-10-16T20:41:05;5.45;;;1.30;;
32138;SDS011;18644;48.700;9.210;2022-10-16T20:43:33;1.48;;;1.38;;
32138;SDS011;18644;48.700;9.210;2022-10-16T20:46:01;1.63;;;1.48;;
32138;SDS011;18644;48.700;9.210;2022-10-16T20:48:32;2.05;;;1.30;;
32138;SDS011;18644;48.700;9.210;2022-10-16T20:51:08;4.10;;;1.50;;
32138;SDS011;18644;48.700;9.210;2022-10-16T20:53:37;5.85;;;1.45;;
32138;SDS011;18644;48.700;9.210;2022-10-16T20:56:05;3.50;;;1.30;;
32138;SDS011;18644;48.700;9.210;2022-10-16T20:58:33;2.60;;;1.35;;
32138;SDS011;18644;48.700;9.210;2022-10-16T21:01:03;3.55;;;1.35;;
32138;SDS011;18644;48.700;9.210;2022-10-16T21:03:31;1.20;;;1.10;;
32138;SDS011;18644;48.700;9.210;2022-10-16T21:06:00;1.85;;;1.50;;
32138;SDS011;18644;48.700;9.210;2022-10-16T21:08:28;4.07;;;1.52;;
32138;SDS011;18644;48.700;9.210;2022-10-16T21:10:55;6.97;;;1.55;;
32138;SDS011;18644;48.700;9.210;2022-10-16T21:13:24;3.15;;;1.50;;
32138;SDS011;18644;48.700;9.210;2022-10-16T21:15:50;1.95;;;1.52;;
32138;SDS011;18644;48.700;9.210;2022-10-16T21:18:17;2.08;;;1.23;;
32138;SDS011;18644;48.700;9.210;2022-10-16T21:20:44;1.98;;;1.48;;
32138;SDS011;18644;48.700;9.210;2022-10-16T21:23:11;1.40;;;1.30;;
32138;SDS011;18644;48.700;9.210;2022-10-16T21:25:38;1.42;;;1.08;;
32138;SDS011;18644;48.700;9.210;2022-10-16T21:28:05;1.92;;;1.50;;
32138;SDS011;18644;48.700;9.210;2022-10-16T21:30:33;4.57;;;1.30;;
32138;SDS011;18644;48.700;9.210;2022-10-16T21:33:00;2.58;;;1.05;;
32138;SDS011;18644;48.700;9.210;2022-10-16T21:35:27;1.63;;;1.25;;
32138;SDS011;18644;48.700;9.210;2022-10-16T21:37:56;1.10;;;1.00;;
32138;SDS011;18644;48.700;9.210;2022-10-16T21:40:24;2.65;;;1.27;;
32138;SDS011;18644;48.700;9.210;2022-10-16T21:42:51;1.60;;;1.30;;
32138;SDS011;18644;48.700;9.210;2022-10-16T21:45:18;1.30;;;1.17;;
32138;SDS011;18644;48.700;9.210;2022-10-16T21:47:46;2.42;;;1.38;;
32138;SDS011;18644;48.700;9.210;2022-10-16T21:50:13;1.30;;;1.20;;
32138;SDS011;18644;48.700;9.210;2022-10-16T21:52:41;1.20;;;1.10;;
32138;SDS011;18644;48.700;9.210;2022-10-16T21:55:08;2.97;;;1.92;;
32138;SDS011;18644;48.700;9.210;2022-10-16T21:57:35;2.17;;;1.13;;
32138;SDS011;18644;48.700;9.210;2022-10-16T22:00:03;2.08;;;1.27;;
32138;SDS011;18644;48.700;9.210;2022-10-16T22:02:31;1.85;;;1.15;;
32138;SDS011;18644;48.700;9.210;2022-10-16T22:05:00;2.45;;;1.10;;
32138;SDS011;18644;48.700;9.210;2022-10-16T22:07:28;1.67;;;1.45;;
32138;SDS011;18644;48.700;9.210;2022-10-16T22:09:55;3.25;;;1.58;;
32138;SDS011;18644;48.700;9.210;2022-10-16T22:12:22;2.80;;;1.50;;
32138;SDS011;18644;48.700;9.210;2022-10-16T22:14:49;1.55;;;1.40;;
32138;SDS011;18644;48.700;9.210;2022-10-16T22:17:16;4.95;;;1.52;;
32138;SDS011;18644;48.700;9.210;2022-10-16T22:19:42;3.38;;;1.25;;
32138;SDS011;18644;48.700;9.210;2022-10-16T22:22:11;6.97;;;1.73;;
32138;SDS011;18644;48.700;9.210;2022-10-16T22:24:37;2.75;;;1.23;;
32138;SDS011;18644;48.700;9.210;2022-10-16T22:27:05;2.45;;;1.08;;
32138;SDS011;18644;48.700;9.210;2022-10-16T22:29:32;2.13;;;1.40;;
32138;SDS011;18644;48.700;9.210;2022-10-16T22:31:59;4.80;;;1.75;;
32138;SDS011;18644;48.700;9.210;2022-10-16T22:34:25;1.35;;;1.25;;
32138;SDS011;18644;48.700;9.210;2022-10-16T22:36:53;1.10;;;1.00;;
32138;SDS011;18644;48.700;9.210;2022-10-16T22:39:21;3.67;;;1.33;;
32138;SDS011;18644;48.700;9.210;2022-10-16T22:41:48;1.00;;;0.95;;
32138;SDS011;18644;48.700;9.210;2022-10-16T22:44:15;1.20;;;1.10;;
32138;SDS011;18644;48.700;9.210;2022-10-16T22:46:42;1.30;;;1.20;;
32138;SDS011;18644;48.700;9.210;2022-10-16T22:49:09;9.25;;;1.35;;
32138;SDS011;18644;48.700;9.210;2022-10-16T22:51:36;5.32;;;1.52;;
32138;SDS011;18644;48.700;9.210;2022-10-16T22:54:03;1.33;;;1.23;;
32138;SDS011;18644;48.700;9.210;2022-10-16T22:56:31;2.17;;;1.30;;
32138;SDS011;18644;48.700;9.210;2022-10-16T22:58:58;1.85;;;1.40;;
32138;SDS011;18644;48.700;9.210;2022-10-16T23:01:25;5.97;;;1.30;;
32138;SDS011;18644;48.700;9.210;2022-10-16T23:03:55;2.15;;;1.35;;
32138;SDS011;18644;48.700;9.210;2022-10-16T23:06:22;1.63;;;1.10;;
32138;SDS011;18644;48.700;9.210;2022-10-16T23:08:49;1.00;;;0.95;;
32138;SDS011;18644;48.700;9.210;2022-10-16T23:11:17;1.40;;;1.20;;
32138;SDS011;18644;48.700;9.210;2022-10-16T23:13:46;1.52;;;1.05;;
32138;SDS011;18644;48.700;9.210;2022-10-16T23:16:13;2.58;;;1.30;;
32138;SDS011;18644;48.700;9.210;2022-10-16T23:18:43;2.45;;;1.10;;
32138;SDS011;18644;48.700;9.210;2022-10-16T23:21:11;2.95;;;1.10;;
32138;SDS011;18644;48.700;9.210;2022-10-16T23:23:40;2.05;;;1.00;;
32138;SDS011;18644;48.700;9.210;2022-10-16T23:26:08;5.05;;;1.20;;
32138;SDS011;18644;48.700;9.210;2022-10-16T23:28:36;3.00;;;1.35;;
32138;SDS011;18644;48.700;9.210;2022-10-16T23:31:05;6.28;;;1.70;;
32138;SDS011;18644;48.700;9.210;2022-10-16T23:33:33;2.08;;;1.17;;
32138;SDS011;18644;48.700;9.210;2022-10-16T23:36:02;4.00;;;1.35;;
32138;SDS011;18644;48.700;9.210;2022-10-16T23:38:31;4.80;;;1.20;;
32138;SDS011;18644;48.700;9.210;2022-10-16T23:40:58;2.15;;;1.20;;
32138;SDS011;18644;48.700;9.210;2022-10-16T23:43:25;2.30;;;1.00;;
32138;SDS011;18644;48.700;9.210;2022-10-16T23:45:52;3.75;;;1.10;;
32138;SDS011;18644;48.700;9.210;2022-10-16T23:48:20;3.28;;;1.00;;
32138;SDS011;18644;48.700;9.210;2022-10-16T23:50:47;0.90;;;0.90;;
32138;SDS011;18644;48.700;9.210;2022-10-16T23:53:14;1.45;;;1.15;;
32138;SDS011;18644;48.700;9.210;2022-10-16T23:55:41;2.63;;;0.93;;
32138;SDS011;18644;48.700;9.210;2022-10-16T23:58:08;4.88;;;1.38;;
